createdAt,value
2019-03-19T00:02:07.644Z,101451.48
2019-03-19T00:04:34.899Z,101459.42
2019-03-19T00:07:02.126Z,101458.03
2019-03-19T00:09:29.285Z,101462.30
2019-03-19T00:11:57.869Z,101468.88
2019-03-19T00:14:25.189Z,101468.63
2019-03-19T00:16:52.666Z,101476.47
2019-03-19T00:19:19.823Z,101473.50
2019-03-19T00:21:47.146Z,101479.18
2019-03-19T00:24:14.655Z,101475.81
2019-03-19T00:26:41.839Z,101474.52
2019-03-19T00:29:09.062Z,101481.37
2019-03-19T00:31:36.259Z,101478.41
2019-03-19T00:34:03.469Z,101471.66
2019-03-19T00:36:30.696Z,101477.77
2019-03-19T00:38:58.232Z,101482.20
2019-03-19T00:41:25.828Z,101490.36
2019-03-19T00:43:53.021Z,101490.72
2019-03-19T00:46:20.222Z,101490.77
2019-03-19T00:48:47.785Z,101487.11
2019-03-19T00:51:15.131Z,101480.87
2019-03-19T00:53:42.339Z,101485.73
2019-03-19T00:56:09.577Z,101485.41
2019-03-19T00:58:36.739Z,101482.97
2019-03-19T01:01:03.987Z,101486.88
2019-03-19T01:03:31.123Z,101491.75
2019-03-19T01:05:58.514Z,101495.67
2019-03-19T01:08:25.732Z,101492.50
2019-03-19T01:10:53.081Z,101487.45
2019-03-19T01:13:20.308Z,101488.91
2019-03-19T01:15:47.741Z,101502.00
2019-03-19T01:18:15.630Z,101502.95
2019-03-19T01:20:42.806Z,101502.42
2019-03-19T01:23:10.349Z,101498.55
2019-03-19T01:25:37.509Z,101492.84
2019-03-19T01:28:05.058Z,101492.02
2019-03-19T01:30:32.200Z,101492.47
2019-03-19T01:32:59.250Z,101495.42
2019-03-19T01:35:26.432Z,101508.48
2019-03-19T01:37:53.500Z,101505.77
2019-03-19T01:40:20.668Z,101513.84
2019-03-19T01:42:47.876Z,101512.14
2019-03-19T01:45:15.026Z,101503.12
2019-03-19T01:47:42.496Z,101498.70
2019-03-19T01:50:09.809Z,101504.83
2019-03-19T01:52:37.238Z,101508.56
2019-03-19T01:55:05.392Z,101505.89
2019-03-19T01:57:32.638Z,101509.86
2019-03-19T01:59:59.922Z,101507.61
2019-03-19T02:02:27.072Z,101501.73
2019-03-19T02:04:54.716Z,101501.54
2019-03-19T02:07:21.863Z,101494.45
2019-03-19T02:09:49.126Z,101503.75
2019-03-19T02:12:16.292Z,101499.69
2019-03-19T02:14:43.387Z,101504.59
2019-03-19T02:17:12.557Z,101501.33
2019-03-19T02:19:39.760Z,101503.18
2019-03-19T02:22:06.922Z,101511.37
2019-03-19T02:24:34.120Z,101508.58
2019-03-19T02:27:01.356Z,101506.33
2019-03-19T02:29:28.681Z,101514.08
2019-03-19T02:31:56.176Z,101508.20
2019-03-19T02:34:23.352Z,101513.16
2019-03-19T02:36:50.504Z,101515.07
2019-03-19T02:39:17.770Z,101523.83
2019-03-19T02:41:44.984Z,101524.02
2019-03-19T02:44:12.171Z,101524.63
2019-03-19T02:46:39.321Z,101526.00
2019-03-19T02:49:06.538Z,101534.27
2019-03-19T02:51:33.722Z,101540.27
2019-03-19T02:54:00.870Z,101537.67
2019-03-19T02:56:33.266Z,101544.22
2019-03-19T02:58:57.609Z,101542.57
2019-03-19T03:01:24.744Z,101545.64
2019-03-19T03:03:51.903Z,101543.48
2019-03-19T03:06:19.490Z,101535.77
2019-03-19T03:08:46.640Z,101534.48
2019-03-19T03:11:14.143Z,101537.94
2019-03-19T03:13:41.423Z,101537.87
2019-03-19T03:16:08.624Z,101546.03
2019-03-19T03:18:35.951Z,101546.03
2019-03-19T03:21:03.254Z,101540.84
2019-03-19T03:23:30.537Z,101543.48
2019-03-19T03:25:58.665Z,101557.80
2019-03-19T03:28:25.845Z,101558.34
2019-03-19T03:30:53.061Z,101559.19
2019-03-19T03:33:20.207Z,101566.86
2019-03-19T03:35:47.277Z,101572.44
2019-03-19T03:38:14.799Z,101568.66
2019-03-19T03:40:42.001Z,101566.13
2019-03-19T03:43:09.087Z,101563.54
2019-03-19T03:45:36.143Z,101570.42
2019-03-19T03:48:44.208Z,101577.92
2019-03-19T03:54:34.091Z,101577.42
2019-03-19T03:57:02.829Z,101593.93
2019-03-19T03:59:40.219Z,101597.41
2019-03-19T04:02:07.430Z,101598.84
2019-03-19T04:07:35.506Z,101605.29
2019-03-19T04:16:20.213Z,101624.00
2019-03-19T04:22:19.398Z,101623.09
2019-03-19T04:28:01.101Z,101627.88
2019-03-19T04:30:28.803Z,101631.52
2019-03-19T04:33:15.459Z,101634.16
2019-03-19T04:35:42.646Z,101636.75
2019-03-19T04:38:09.857Z,101640.23
2019-03-19T04:40:56.402Z,101639.28
2019-03-19T04:43:23.610Z,101639.82
2019-03-19T04:45:50.668Z,101650.36
2019-03-19T04:48:17.880Z,101655.06
2019-03-19T04:51:25.800Z,101650.68
2019-03-19T04:53:52.999Z,101657.56
2019-03-19T04:56:20.059Z,101654.94
2019-03-19T04:59:06.735Z,101665.16
2019-03-19T05:01:33.772Z,101667.72
2019-03-19T05:07:02.230Z,101661.00
2019-03-19T05:12:37.650Z,101669.28
2019-03-19T05:15:45.622Z,101667.59
2019-03-19T05:18:32.178Z,101667.21
2019-03-19T05:20:59.212Z,101681.16
2019-03-19T05:26:06.164Z,101690.52
2019-03-19T05:28:53.161Z,101685.86
2019-03-19T05:31:20.480Z,101688.94
2019-03-19T05:33:47.639Z,101696.81
2019-03-19T05:36:14.860Z,101693.94
2019-03-19T05:39:01.694Z,101696.27
2019-03-19T05:41:30.644Z,101703.67
2019-03-19T05:44:17.346Z,101702.86
2019-03-19T05:46:44.504Z,101702.34
2019-03-19T05:49:11.702Z,101711.54
2019-03-19T05:54:39.818Z,101721.86
2019-03-19T05:57:07.372Z,101721.59
2019-03-19T05:59:34.556Z,101726.58
2019-03-19T06:02:01.773Z,101729.38
2019-03-19T06:04:28.988Z,101726.92
2019-03-19T06:06:56.215Z,101726.50
2019-03-19T06:12:24.378Z,101719.36
2019-03-19T06:24:02.893Z,101725.55
2019-03-19T06:26:30.417Z,101733.77
2019-03-19T06:28:57.658Z,101732.55
2019-03-19T06:31:44.559Z,101725.67
2019-03-19T06:34:16.639Z,101738.08
2019-03-19T06:36:50.209Z,101740.43
2019-03-19T06:42:38.068Z,101751.73
2019-03-19T06:45:06.691Z,101748.82
2019-03-19T06:53:34.635Z,101766.88
2019-03-19T06:56:01.759Z,101770.59
2019-03-19T06:58:30.686Z,101771.33
2019-03-19T07:00:57.951Z,101767.62
2019-03-19T07:03:25.176Z,101778.06
2019-03-19T07:05:52.252Z,101776.48
2019-03-19T07:08:19.485Z,101773.45
2019-03-19T07:10:47.020Z,101780.20
2019-03-19T07:13:14.212Z,101779.69
2019-03-19T07:15:41.436Z,101779.92
2019-03-19T07:18:08.615Z,101781.73
2019-03-19T07:21:16.611Z,101783.09
2019-03-19T07:27:04.476Z,101786.48
2019-03-19T07:32:52.239Z,101789.89
2019-03-19T07:35:31.934Z,101793.42
2019-03-19T07:41:19.938Z,101777.66
2019-03-19T07:43:47.156Z,101777.66
2019-03-19T07:52:16.734Z,101783.14
2019-03-19T07:54:55.926Z,101788.73
2019-03-19T07:57:42.619Z,101775.83
2019-03-19T08:03:16.114Z,101792.58
2019-03-19T08:08:58.872Z,101786.50
2019-03-19T08:11:26.025Z,101794.53
2019-03-19T08:14:04.710Z,101799.36
2019-03-19T08:16:31.874Z,101800.84
2019-03-19T08:18:59.025Z,101808.06
2019-03-19T08:27:53.944Z,101821.28
2019-03-19T08:30:21.046Z,101825.77
2019-03-19T08:33:07.587Z,101832.97
2019-03-19T08:38:47.619Z,101835.27
2019-03-19T08:41:26.517Z,101828.19
2019-03-19T08:46:34.254Z,101832.23
2019-03-19T08:49:22.389Z,101836.77
2019-03-19T09:07:15.782Z,101849.49
2019-03-19T09:09:42.960Z,101849.37
2019-03-19T09:12:10.510Z,101850.80
2019-03-19T09:14:37.678Z,101852.22
2019-03-19T09:19:42.794Z,101854.45
2019-03-19T09:22:29.934Z,101853.58
2019-03-19T09:25:45.534Z,101843.48
2019-03-19T09:28:13.080Z,101851.73
2019-03-19T09:34:20.235Z,101855.54
2019-03-19T09:39:25.446Z,101861.56
2019-03-19T09:41:52.743Z,101861.14
2019-03-19T09:44:19.980Z,101871.45
2019-03-19T09:46:47.578Z,101868.45
2019-03-19T09:57:56.966Z,101854.27
2019-03-19T10:00:24.148Z,101855.91
2019-03-19T10:02:51.353Z,101854.36
2019-03-19T10:08:20.257Z,101853.97
2019-03-19T10:10:47.768Z,101854.22
2019-03-19T10:16:16.320Z,101851.88
2019-03-19T10:18:43.494Z,101857.06
2019-03-19T10:21:10.705Z,101864.55
2019-03-19T10:24:18.736Z,101860.02
2019-03-19T10:26:45.904Z,101867.44
2019-03-19T10:29:53.950Z,101864.55
2019-03-19T10:32:40.588Z,101859.89
2019-03-19T10:35:07.866Z,101868.30
2019-03-19T10:40:45.804Z,101870.58
2019-03-19T10:43:13.280Z,101866.36
2019-03-19T10:45:40.429Z,101864.55
2019-03-19T10:48:07.490Z,101872.71
2019-03-19T10:50:34.549Z,101874.84
2019-03-19T10:53:42.586Z,101875.47
2019-03-19T10:56:09.709Z,101874.83
2019-03-19T10:59:17.855Z,101861.30
2019-03-19T11:05:50.377Z,101862.00
2019-03-19T11:08:17.567Z,101867.28
2019-03-19T11:11:25.624Z,101857.69
2019-03-19T11:13:52.824Z,101863.16
2019-03-19T11:16:20.037Z,101854.83
2019-03-19T11:18:47.271Z,101851.36
2019-03-19T11:24:22.746Z,101861.83
2019-03-19T11:26:49.931Z,101867.28
2019-03-19T11:29:29.071Z,101864.16
2019-03-19T11:32:15.736Z,101860.65
2019-03-19T11:35:02.765Z,101860.64
2019-03-19T11:37:30.346Z,101857.89
2019-03-19T11:43:12.608Z,101851.07
2019-03-19T11:45:39.889Z,101850.96
2019-03-19T11:48:06.969Z,101853.27
2019-03-19T11:50:34.092Z,101851.21
2019-03-19T11:53:15.677Z,101855.92
2019-03-19T11:56:02.920Z,101855.98
2019-03-19T11:58:30.037Z,101856.97
2019-03-19T12:03:41.188Z,101850.14
2019-03-19T12:06:28.448Z,101850.11
2019-03-19T12:09:15.700Z,101853.52
2019-03-19T12:11:43.490Z,101848.20
2019-03-19T12:14:10.552Z,101854.34
2019-03-19T12:19:38.938Z,101860.11
2019-03-19T12:22:06.096Z,101851.28
2019-03-19T12:24:33.319Z,101858.61
2019-03-19T12:27:00.539Z,101856.45
2019-03-19T12:33:12.341Z,101856.49
2019-03-19T12:35:39.736Z,101861.98
2019-03-19T12:38:06.985Z,101863.40
2019-03-19T12:40:37.075Z,101861.31
2019-03-19T12:43:10.126Z,101856.14
2019-03-19T12:45:37.298Z,101852.88
2019-03-19T12:48:45.358Z,101849.38
2019-03-19T12:51:12.974Z,101845.42
2019-03-19T12:53:59.723Z,101854.83
2019-03-19T12:56:26.863Z,101850.61
2019-03-19T12:58:54.044Z,101843.75
2019-03-19T13:02:02.013Z,101839.33
2019-03-19T13:04:29.188Z,101834.14
2019-03-19T13:06:56.712Z,101833.30
2019-03-19T13:18:05.966Z,101834.52
2019-03-19T13:21:13.864Z,101828.60
2019-03-19T13:23:41.424Z,101815.38
2019-03-19T13:26:08.592Z,101817.84
2019-03-19T13:28:35.821Z,101817.47
2019-03-19T13:31:03.037Z,101821.31
2019-03-19T13:37:04.233Z,101821.72
2019-03-19T13:39:31.420Z,101819.83
2019-03-19T13:42:10.167Z,101823.59
2019-03-19T13:47:57.360Z,101820.64
2019-03-19T13:50:24.570Z,101812.83
2019-03-19T13:53:07.527Z,101811.14
2019-03-19T13:56:16.108Z,101819.63
2019-03-19T13:58:55.346Z,101816.66
2019-03-19T14:01:45.610Z,101812.03
2019-03-19T14:04:12.702Z,101815.63
2019-03-19T14:06:39.882Z,101813.94
2019-03-19T14:12:09.476Z,101807.50
2019-03-19T14:14:36.609Z,101812.34
2019-03-19T14:17:03.775Z,101817.26
2019-03-19T14:19:30.871Z,101811.98
2019-03-19T14:21:58.066Z,101812.73
2019-03-19T14:24:39.192Z,101812.45
2019-03-19T14:27:47.167Z,101803.50
2019-03-19T14:30:27.104Z,101805.98
2019-03-19T14:39:28.523Z,101803.34
2019-03-19T14:42:15.529Z,101800.78
2019-03-19T14:44:42.782Z,101805.20
2019-03-19T14:47:09.941Z,101801.15
2019-03-19T14:49:46.271Z,101807.95
2019-03-19T14:52:12.161Z,101807.95
2019-03-19T14:54:39.380Z,101807.76
2019-03-19T14:57:47.420Z,101810.41
2019-03-19T15:06:49.873Z,101813.59
2019-03-19T15:10:04.594Z,101813.87
2019-03-19T15:13:03.779Z,101811.88
2019-03-19T15:15:30.955Z,101820.22
2019-03-19T15:17:58.048Z,101818.48
2019-03-19T15:20:25.294Z,101825.16
2019-03-19T15:22:52.499Z,101816.33
2019-03-19T15:25:19.731Z,101807.38
2019-03-19T15:27:46.828Z,101815.19
2019-03-19T15:33:14.909Z,101806.72
2019-03-19T15:35:42.003Z,101808.83
2019-03-19T15:46:52.659Z,101817.09
2019-03-19T15:55:00.962Z,101825.34
2019-03-19T15:57:47.617Z,101827.56
2019-03-19T16:00:14.836Z,101825.00
2019-03-19T16:03:03.250Z,101826.96
2019-03-19T16:05:30.355Z,101830.42
2019-03-19T16:08:16.991Z,101845.40
2019-03-19T16:10:44.220Z,101840.58
2019-03-19T16:13:11.373Z,101839.91
2019-03-19T16:18:53.189Z,101843.40
2019-03-19T16:21:20.375Z,101842.55
2019-03-19T16:23:47.958Z,101850.82
2019-03-19T16:26:15.206Z,101858.74
2019-03-19T16:32:47.680Z,101859.49
2019-03-19T16:35:15.444Z,101866.77
2019-03-19T16:37:42.633Z,101870.89
2019-03-19T16:40:42.896Z,101873.08
2019-03-19T16:43:10.123Z,101879.11
2019-03-19T16:45:37.227Z,101875.03
2019-03-19T16:48:04.403Z,101882.42
2019-03-19T16:50:51.315Z,101890.88
2019-03-19T16:56:33.079Z,101887.11
2019-03-19T16:59:00.677Z,101884.02
2019-03-19T17:04:29.372Z,101898.39
2019-03-19T17:12:59.172Z,101908.14
2019-03-19T17:18:28.265Z,101905.75
2019-03-19T17:20:55.672Z,101916.06
2019-03-19T17:23:22.850Z,101920.61
2019-03-19T17:25:50.081Z,101920.67
2019-03-19T17:28:22.567Z,101926.68
2019-03-19T17:30:55.885Z,101927.14
2019-03-19T17:33:23.074Z,101932.02
2019-03-19T17:35:50.326Z,101931.84
2019-03-19T17:38:17.915Z,101932.71
2019-03-19T17:40:45.480Z,101944.46
2019-03-19T17:49:07.071Z,101948.91
2019-03-19T17:51:34.325Z,101958.93
2019-03-19T17:54:42.311Z,101956.53
2019-03-19T17:57:09.568Z,101965.27
2019-03-19T18:02:38.254Z,101961.73
2019-03-19T18:05:37.554Z,101961.20
2019-03-19T18:08:16.791Z,101967.44
2019-03-19T18:16:46.924Z,101981.60
2019-03-19T18:19:14.119Z,101978.72
2019-03-19T18:21:41.318Z,101982.08
2019-03-19T18:24:49.471Z,101985.48
2019-03-19T18:27:16.655Z,101988.72
2019-03-19T18:30:03.599Z,101996.34
2019-03-19T18:35:55.124Z,101995.57
2019-03-19T18:38:30.518Z,102001.95
2019-03-19T18:41:17.347Z,102003.13
2019-03-19T18:43:44.517Z,102007.35
2019-03-19T18:46:11.726Z,102011.41
2019-03-19T18:49:19.731Z,102015.59
2019-03-19T18:51:47.314Z,102014.64
2019-03-19T18:54:33.969Z,102013.72
2019-03-19T18:59:38.871Z,102018.33
2019-03-19T19:02:06.070Z,102024.81
2019-03-19T19:05:05.124Z,102025.09
2019-03-19T19:11:06.946Z,102032.55
2019-03-19T19:17:08.619Z,102039.27
2019-03-19T19:19:35.805Z,102044.98
2019-03-19T19:22:03.692Z,102049.53
2019-03-19T19:24:31.082Z,102043.16
2019-03-19T19:26:58.352Z,102053.14
2019-03-19T19:29:25.739Z,102052.94
2019-03-19T19:31:53.149Z,102054.03
2019-03-19T19:34:20.682Z,102051.17
2019-03-19T19:37:07.452Z,102051.61
2019-03-19T19:39:54.151Z,102053.03
2019-03-19T19:43:02.229Z,102060.15
2019-03-19T19:48:43.005Z,102064.07
2019-03-19T19:51:10.222Z,102058.56
2019-03-19T19:53:37.302Z,102059.94
2019-03-19T19:56:45.378Z,102059.32
2019-03-19T19:59:12.561Z,102065.09
2019-03-19T20:02:20.616Z,102071.36
2019-03-19T20:13:29.069Z,102081.31
2019-03-19T20:15:56.224Z,102087.43
2019-03-19T20:18:55.336Z,102090.61
2019-03-19T20:21:22.511Z,102094.63
2019-03-19T20:23:49.988Z,102094.13
2019-03-19T20:26:29.516Z,102101.89
2019-03-19T20:35:12.050Z,102108.01
2019-03-19T20:37:39.243Z,102111.69
2019-03-19T20:40:47.751Z,102116.53
2019-03-19T20:43:34.419Z,102114.42
2019-03-19T20:46:42.487Z,102113.81
2019-03-19T20:49:09.706Z,102118.59
2019-03-19T21:01:06.624Z,102133.23
2019-03-19T21:03:53.267Z,102129.88
2019-03-19T21:07:01.211Z,102136.55
2019-03-19T21:09:28.395Z,102135.83
2019-03-19T21:11:55.504Z,102147.20
2019-03-19T21:17:43.583Z,102151.46
2019-03-19T21:23:19.087Z,102165.63
2019-03-19T21:25:46.266Z,102165.12
2019-03-19T21:28:14.633Z,102171.14
2019-03-19T21:31:02.785Z,102174.59
2019-03-19T21:33:29.977Z,102166.74
2019-03-19T21:35:57.522Z,102168.07
2019-03-19T21:38:25.086Z,102168.53
2019-03-19T21:41:12.094Z,102162.56
2019-03-19T21:43:39.764Z,102165.70
2019-03-19T21:46:06.976Z,102167.61
2019-03-19T21:48:46.448Z,102172.00
2019-03-19T21:51:13.635Z,102172.93
2019-03-19T21:54:21.552Z,102176.02
2019-03-19T21:56:49.101Z,102170.92
2019-03-19T21:59:16.256Z,102176.13
2019-03-19T22:01:43.517Z,102181.48
2019-03-19T22:04:10.726Z,102182.02
2019-03-19T22:06:37.922Z,102184.06
2019-03-19T22:09:46.532Z,102182.48
2019-03-19T22:12:33.210Z,102181.30
2019-03-19T22:15:00.801Z,102184.34
2019-03-19T22:17:47.417Z,102191.74
2019-03-19T22:20:55.462Z,102199.63
2019-03-19T22:26:01.590Z,102199.98
2019-03-19T22:28:28.828Z,102203.61
2019-03-19T22:31:15.462Z,102205.91
2019-03-19T22:33:42.962Z,102211.09
2019-03-19T22:36:41.994Z,102208.50
2019-03-19T22:39:09.152Z,102214.77
2019-03-19T22:41:36.315Z,102215.30
2019-03-19T22:44:44.484Z,102219.19
2019-03-19T22:47:31.100Z,102211.39
2019-03-19T22:49:58.643Z,102207.10
2019-03-19T22:52:26.158Z,102213.80
2019-03-19T22:54:53.321Z,102210.47
2019-03-19T22:57:20.587Z,102226.50
2019-03-19T22:59:47.816Z,102229.19
2019-03-19T23:02:15.030Z,102228.85
2019-03-19T23:04:42.207Z,102233.64
2019-03-19T23:16:24.284Z,102242.77
2019-03-19T23:18:51.677Z,102240.77
2019-03-19T23:21:59.760Z,102236.92
2019-03-19T23:27:47.762Z,102246.92
2019-03-19T23:30:27.010Z,102254.81
2019-03-19T23:32:54.185Z,102249.17
2019-03-19T23:35:21.361Z,102254.70
2019-03-19T23:40:50.005Z,102259.52
2019-03-19T23:49:22.699Z,102261.55
2019-03-19T23:52:21.410Z,102268.95
2019-03-19T23:55:00.709Z,102268.59
